Terminal Aerodrome Forecast
Issued by NWS

Home | Current Version | Previous Version | Text Only | Print | Product List | Glossary On
Versions: 1 2 3 4 5 6 7 8 9 10 11 12 13 14 15 16 17
130
FTUS43 KJKL 230539
TAFSME
TAF
KSME 230539Z 2306/2406 11010G23KT P6SM SHRA OVC090
     FM231800 11010G20KT P6SM VCSH SCT025 OVC045
     FM240000 11010KT P6SM -SHRA SCT025 OVC045=

USA.gov is the U.S. government's official web portal to all federal, state and local government web resources and services.